Aspen Park, Colorado
Current Conditions -  °F | °C
As of 5:53 AM on Friday 28 Nov 2014 (Local Time) from KAPA Reporting Station
Few Clouds Few Clouds  
Wind Chill:   Ceiling: Unl
Heat Index:   Visibility: 10mi
Dew Point: -8°   Wind: 12mph
Humidity: 43%   Direction: 250°WSW
Pressure: 29.99"   Gusts: 20mph
Location:  39.4975°N, 105.289°W
Report Text: KAPA 281253Z 25010G17KT 10SM FEW140 FEW220 04/M08 A2999 RMK AO2 SLP141 T00391078
Loading
Personal Weather Stations






























Interactive Weather Map New forecast layout! Learn more

10-Day Weather Forecast

Advertisements
Track Severe Weather on mobile